createdAt,value
2023-01-04T00:00:26.800Z,6.37
2023-01-04T00:00:58.315Z,5.74
2023-01-04T00:01:29.801Z,6.23
2023-01-04T00:02:01.253Z,6.33
2023-01-04T00:02:32.828Z,5.60
2023-01-04T00:03:04.545Z,5.61
2023-01-04T00:03:36.155Z,6.27
2023-01-04T00:04:07.753Z,5.86
2023-01-04T00:04:39.182Z,6.44
2023-01-04T00:05:10.586Z,6.39
2023-01-04T00:05:42.000Z,5.90
2023-01-04T00:06:13.394Z,6.03
2023-01-04T00:06:44.917Z,5.90
2023-01-04T00:07:16.338Z,5.79
2023-01-04T00:07:47.733Z,6.03
2023-01-04T00:08:19.136Z,5.73
2023-01-04T00:08:50.556Z,5.28
2023-01-04T00:09:21.955Z,5.63
2023-01-04T00:09:53.349Z,5.55
2023-01-04T00:10:24.771Z,6.05
2023-01-04T00:10:56.179Z,5.36
2023-01-04T00:11:27.573Z,5.84
2023-01-04T00:11:59.062Z,5.80
2023-01-04T00:12:30.465Z,6.04
2023-01-04T00:13:01.874Z,6.06
2023-01-04T00:13:33.290Z,5.49
2023-01-04T00:14:04.743Z,5.51
2023-01-04T00:14:36.160Z,5.51
2023-01-04T00:15:07.550Z,6.09
2023-01-04T00:15:39.025Z,6.05
2023-01-04T00:16:10.541Z,5.37
2023-01-04T00:16:42.042Z,5.36
2023-01-04T00:17:13.607Z,5.67
2023-01-04T00:17:45.026Z,5.46
2023-01-04T00:18:16.419Z,5.58
2023-01-04T00:18:47.854Z,5.94
2023-01-04T00:19:19.249Z,5.67
2023-01-04T00:19:50.652Z,6.43
2023-01-04T00:20:22.055Z,6.00
2023-01-04T00:20:53.449Z,5.43
2023-01-04T00:21:24.848Z,5.01
2023-01-04T00:21:56.248Z,5.67
2023-01-04T00:22:27.693Z,5.24
2023-01-04T00:22:59.107Z,5.26
2023-01-04T00:23:30.555Z,4.80
2023-01-04T00:24:01.960Z,5.31
2023-01-04T00:24:33.380Z,4.99
2023-01-04T00:25:04.779Z,5.60
2023-01-04T00:25:36.190Z,5.46
2023-01-04T00:26:07.586Z,5.40
2023-01-04T00:26:39.000Z,5.55
2023-01-04T00:27:10.405Z,6.25
2023-01-04T00:27:41.942Z,5.24
2023-01-04T00:28:13.362Z,4.67
2023-01-04T00:28:49.968Z,4.77
2023-01-04T00:29:25.219Z,5.07
2023-01-04T00:29:56.634Z,5.33
2023-01-04T00:30:28.042Z,5.33
2023-01-04T00:30:59.470Z,5.45
2023-01-04T00:31:30.943Z,5.11
2023-01-04T00:32:02.410Z,5.62
2023-01-04T00:32:33.798Z,5.02
2023-01-04T00:33:05.284Z,5.52
2023-01-04T00:33:36.678Z,5.10
2023-01-04T00:34:08.096Z,4.58
2023-01-04T00:34:39.509Z,4.49
2023-01-04T00:35:11.067Z,4.83
2023-01-04T00:35:46.072Z,5.09
2023-01-04T00:36:17.965Z,4.97
2023-01-04T00:36:49.363Z,4.44
2023-01-04T00:37:20.817Z,5.26
2023-01-04T00:37:52.408Z,5.38
2023-01-04T00:38:23.900Z,5.29
2023-01-04T00:38:55.298Z,5.21
2023-01-04T00:39:26.693Z,4.45
2023-01-04T00:39:58.177Z,4.93
2023-01-04T00:40:29.590Z,5.93
2023-01-04T00:41:01.011Z,5.69
2023-01-04T00:41:57.571Z,5.45
2023-01-04T00:42:23.808Z,5.64
2023-01-04T00:42:55.221Z,4.70
2023-01-04T00:43:26.791Z,4.86
2023-01-04T00:43:58.199Z,4.76
2023-01-04T00:44:29.699Z,4.70
2023-01-04T00:45:01.148Z,5.10
2023-01-04T00:45:32.553Z,5.29
2023-01-04T00:46:04.097Z,5.26
2023-01-04T00:46:35.689Z,4.60
2023-01-04T00:47:07.199Z,4.75
2023-01-04T00:47:38.605Z,4.88
2023-01-04T00:48:10.008Z,4.32
2023-01-04T00:48:44.988Z,4.85
2023-01-04T00:49:20.135Z,5.09
2023-01-04T00:49:51.539Z,4.94
2023-01-04T00:50:22.944Z,4.71
2023-01-04T00:50:54.357Z,5.09
2023-01-04T00:51:25.777Z,5.03
2023-01-04T00:51:57.182Z,4.14
2023-01-04T00:52:28.582Z,4.55
2023-01-04T00:52:59.996Z,4.36
2023-01-04T00:53:31.416Z,5.31
2023-01-04T00:54:02.880Z,4.95
2023-01-04T00:54:34.308Z,4.75
2023-01-04T00:55:05.712Z,4.34
2023-01-04T00:55:37.105Z,4.47
2023-01-04T00:56:08.499Z,5.07
2023-01-04T00:56:39.925Z,4.83
2023-01-04T00:57:11.330Z,4.94
2023-01-04T00:57:42.733Z,4.81
2023-01-04T00:58:14.163Z,4.58
2023-01-04T00:58:45.587Z,5.21
2023-01-04T00:59:17.045Z,4.60
2023-01-04T00:59:48.441Z,4.30
2023-01-04T01:00:19.933Z,4.96
2023-01-04T01:00:51.332Z,4.80
2023-01-04T01:01:22.781Z,4.74
2023-01-04T01:01:54.428Z,4.58
2023-01-04T01:02:26.110Z,4.71
2023-01-04T01:02:57.796Z,4.74
2023-01-04T01:03:34.920Z,4.67
2023-01-04T01:04:09.666Z,4.72
2023-01-04T01:04:41.106Z,4.18
2023-01-04T01:05:12.509Z,4.39
2023-01-04T01:05:43.927Z,3.96
2023-01-04T01:06:15.328Z,4.68
2023-01-04T01:06:46.758Z,4.86
2023-01-04T01:07:18.167Z,5.03
2023-01-04T01:07:49.591Z,4.98
2023-01-04T01:08:21.008Z,4.64
2023-01-04T01:08:52.407Z,4.59
2023-01-04T01:09:23.942Z,4.20
2023-01-04T01:09:55.359Z,4.28
2023-01-04T01:10:26.760Z,4.70
2023-01-04T01:10:58.163Z,4.75
2023-01-04T01:11:29.565Z,4.72
2023-01-04T01:12:00.974Z,4.60
2023-01-04T01:12:32.392Z,5.03
2023-01-04T01:13:03.809Z,4.37
2023-01-04T01:13:35.214Z,4.79
2023-01-04T01:14:06.625Z,4.32
2023-01-04T01:14:38.146Z,4.01
2023-01-04T01:15:09.768Z,3.69
2023-01-04T01:15:41.258Z,4.57
2023-01-04T01:16:12.704Z,4.28
2023-01-04T01:16:54.825Z,4.27
2023-01-04T01:17:27.603Z,4.53
2023-01-04T01:17:59.014Z,4.28
2023-01-04T01:18:30.421Z,4.25
2023-01-04T01:19:01.834Z,4.71
2023-01-04T01:19:33.237Z,4.40
2023-01-04T01:20:04.799Z,4.02
2023-01-04T01:20:36.214Z,3.97
2023-01-04T01:21:07.646Z,3.98
2023-01-04T01:21:39.068Z,4.71
2023-01-04T01:22:10.485Z,4.56
2023-01-04T01:22:41.879Z,4.08
2023-01-04T01:23:13.274Z,4.15
2023-01-04T01:23:44.687Z,4.28
2023-01-04T01:24:16.119Z,4.49
2023-01-04T01:24:47.692Z,4.56
2023-01-04T01:25:19.261Z,4.66
2023-01-04T01:25:50.654Z,4.22
2023-01-04T01:26:22.076Z,4.03
2023-01-04T01:26:53.594Z,3.71
2023-01-04T01:27:25.021Z,4.07
2023-01-04T01:27:56.429Z,4.34
2023-01-04T01:28:27.856Z,3.88
2023-01-04T01:28:59.274Z,3.98
2023-01-04T01:29:30.692Z,4.25
2023-01-04T01:30:02.189Z,4.49
2023-01-04T01:30:33.646Z,4.05
2023-01-04T01:31:08.447Z,4.23
2023-01-04T01:31:40.348Z,4.35
2023-01-04T01:32:11.800Z,4.01
2023-01-04T01:32:43.199Z,4.41
2023-01-04T01:33:14.626Z,4.06
2023-01-04T01:33:46.026Z,3.96
2023-01-04T01:34:17.468Z,4.16
2023-01-04T01:34:48.868Z,4.03
2023-01-04T01:35:20.436Z,4.15
2023-01-04T01:35:51.892Z,3.86
2023-01-04T01:36:23.293Z,3.68
2023-01-04T01:36:54.711Z,3.62
2023-01-04T01:37:26.115Z,3.80
2023-01-04T01:37:57.525Z,4.13
2023-01-04T01:38:28.956Z,4.73
2023-01-04T01:39:00.373Z,4.09
2023-01-04T01:39:31.775Z,4.12
2023-01-04T01:40:03.171Z,3.85
2023-01-04T01:40:34.592Z,3.86
2023-01-04T01:41:06.143Z,4.75
2023-01-04T01:41:37.547Z,3.29
2023-01-04T01:42:08.987Z,3.57
2023-01-04T01:42:40.388Z,4.21
2023-01-04T01:43:11.799Z,4.56
2023-01-04T01:43:43.214Z,3.84
2023-01-04T01:44:14.683Z,3.82
2023-01-04T01:44:46.143Z,4.43
2023-01-04T01:45:17.557Z,4.32
2023-01-04T01:45:48.949Z,4.43
2023-01-04T01:46:20.461Z,4.01
2023-01-04T01:46:51.955Z,4.37
2023-01-04T01:47:23.415Z,4.18
2023-01-04T01:47:54.822Z,3.87
2023-01-04T01:48:26.247Z,4.04
2023-01-04T01:48:57.681Z,3.81
2023-01-04T01:49:29.104Z,3.64
2023-01-04T01:50:00.507Z,4.01
2023-01-04T01:50:31.924Z,4.45
2023-01-04T01:51:03.317Z,3.77
2023-01-04T01:51:34.774Z,4.32
2023-01-04T01:52:06.173Z,3.95
2023-01-04T01:52:37.580Z,4.21
2023-01-04T01:53:08.986Z,3.98
2023-01-04T01:53:40.407Z,4.55
2023-01-04T01:54:11.813Z,3.42
2023-01-04T01:54:43.233Z,4.01
2023-01-04T01:55:14.640Z,4.00
2023-01-04T01:55:46.054Z,3.91
2023-01-04T01:56:17.459Z,3.80
2023-01-04T01:56:48.956Z,4.08
2023-01-04T01:57:20.374Z,3.93
2023-01-04T01:57:51.806Z,3.64
2023-01-04T01:58:23.216Z,4.14
2023-01-04T01:58:54.634Z,3.78
2023-01-04T01:59:26.046Z,3.73
2023-01-04T01:59:57.433Z,4.00
2023-01-04T02:00:28.820Z,3.28
2023-01-04T02:01:00.214Z,3.42
2023-01-04T02:01:31.762Z,4.05
2023-01-04T02:02:03.424Z,4.24
2023-01-04T02:02:35.033Z,3.82
2023-01-04T02:03:06.609Z,4.26
2023-01-04T02:03:38.163Z,4.04
2023-01-04T02:04:09.701Z,4.03
2023-01-04T02:04:41.161Z,3.51
2023-01-04T02:05:12.586Z,3.46
2023-01-04T02:05:43.994Z,4.50
2023-01-04T02:06:15.404Z,4.06
2023-01-04T02:06:46.824Z,3.89
2023-01-04T02:07:18.301Z,3.93
2023-01-04T02:07:49.717Z,3.59
2023-01-04T02:08:21.122Z,3.77
2023-01-04T02:08:52.575Z,3.87
2023-01-04T02:09:23.991Z,3.15
2023-01-04T02:09:55.406Z,3.96
2023-01-04T02:10:26.880Z,3.67
2023-01-04T02:10:58.291Z,3.98
2023-01-04T02:11:29.703Z,3.75
2023-01-04T02:12:01.100Z,3.62
2023-01-04T02:12:32.569Z,4.06
2023-01-04T02:13:04.014Z,3.77
2023-01-04T02:13:35.414Z,3.85
2023-01-04T02:14:06.815Z,3.92
2023-01-04T02:14:38.220Z,3.38
2023-01-04T02:15:09.627Z,3.59
2023-01-04T02:15:41.097Z,3.70
2023-01-04T02:16:12.630Z,3.87
2023-01-04T02:16:44.098Z,3.97
2023-01-04T02:17:15.506Z,4.04
2023-01-04T02:17:47.044Z,3.93
2023-01-04T02:18:18.442Z,3.43
2023-01-04T02:18:49.832Z,3.82
2023-01-04T02:19:21.233Z,3.49
2023-01-04T02:19:53.355Z,3.58
2023-01-04T02:20:24.774Z,3.54
2023-01-04T02:20:56.198Z,3.86
2023-01-04T02:21:27.618Z,3.38
2023-01-04T02:21:59.029Z,3.52
2023-01-04T02:22:30.456Z,3.35
2023-01-04T02:23:02.012Z,3.11
2023-01-04T02:23:33.420Z,3.20
2023-01-04T02:24:04.818Z,3.39
2023-01-04T02:24:36.226Z,3.76
2023-01-04T02:25:07.634Z,3.18
2023-01-04T02:25:39.043Z,3.23
2023-01-04T02:26:10.447Z,3.28
2023-01-04T02:26:41.865Z,3.61
2023-01-04T02:27:13.263Z,3.64
2023-01-04T02:27:44.664Z,3.44
2023-01-04T02:28:16.163Z,3.43
2023-01-04T02:28:47.591Z,3.62
2023-01-04T02:29:19.005Z,3.59
2023-01-04T02:29:50.407Z,3.95
2023-01-04T02:30:21.815Z,3.61
2023-01-04T02:30:53.304Z,3.87
2023-01-04T02:31:24.736Z,3.53
2023-01-04T02:31:56.231Z,3.13
2023-01-04T02:32:27.695Z,3.91
2023-01-04T02:32:59.097Z,3.30
2023-01-04T02:33:30.658Z,3.53
2023-01-04T02:34:02.060Z,3.55
2023-01-04T02:34:33.476Z,3.63
2023-01-04T02:35:04.900Z,3.92
2023-01-04T02:35:36.311Z,3.07
2023-01-04T02:36:07.720Z,3.69
2023-01-04T02:36:39.121Z,3.81
2023-01-04T02:37:10.587Z,4.00
2023-01-04T02:37:41.988Z,3.57
2023-01-04T02:38:13.394Z,3.32
2023-01-04T02:38:44.829Z,3.27
2023-01-04T02:39:16.249Z,3.52
2023-01-04T02:39:47.633Z,3.62
2023-01-04T02:40:19.025Z,3.41
2023-01-04T02:40:50.425Z,3.31
2023-01-04T02:41:21.829Z,3.36
2023-01-04T02:41:53.231Z,3.37
2023-01-04T02:42:24.630Z,3.75
2023-01-04T02:42:56.037Z,3.36
2023-01-04T02:43:27.441Z,3.63
2023-01-04T02:43:58.965Z,3.34
2023-01-04T02:44:30.370Z,3.12
2023-01-04T02:45:01.793Z,3.43
2023-01-04T02:45:33.225Z,3.20
2023-01-04T02:46:04.701Z,2.99
2023-01-04T02:46:36.229Z,3.47
2023-01-04T02:47:07.726Z,3.72
2023-01-04T02:47:39.259Z,3.59
2023-01-04T02:48:10.678Z,3.15
2023-01-04T02:48:42.082Z,3.42
2023-01-04T02:49:13.525Z,3.42
2023-01-04T02:49:44.946Z,3.47
2023-01-04T02:50:16.375Z,3.19
2023-01-04T02:50:47.766Z,3.21
2023-01-04T02:51:19.189Z,3.39
2023-01-04T02:51:50.595Z,3.31
2023-01-04T02:52:22.017Z,3.06
2023-01-04T02:52:53.430Z,3.48
2023-01-04T02:53:24.936Z,3.40
2023-01-04T02:53:56.368Z,3.24
2023-01-04T02:54:27.795Z,3.08
2023-01-04T02:54:59.249Z,3.08
2023-01-04T02:55:30.660Z,2.86
2023-01-04T02:56:02.082Z,3.53
2023-01-04T02:56:33.488Z,3.24
2023-01-04T02:57:05.984Z,3.24
2023-01-04T02:57:37.793Z,3.18
2023-01-04T02:58:09.213Z,2.61
2023-01-04T02:58:40.609Z,3.11
2023-01-04T02:59:12.015Z,3.18
2023-01-04T02:59:43.519Z,3.26
2023-01-04T03:00:14.920Z,3.10
2023-01-04T03:00:46.324Z,2.69
2023-01-04T03:01:17.833Z,2.94
2023-01-04T03:01:49.496Z,3.28
2023-01-04T03:02:21.202Z,2.73
2023-01-04T03:02:52.867Z,2.78
2023-01-04T03:03:24.566Z,3.12
2023-01-04T03:03:56.086Z,2.84
2023-01-04T03:04:27.537Z,2.62
2023-01-04T03:04:59.089Z,3.28
2023-01-04T03:05:30.485Z,3.18
2023-01-04T03:06:01.882Z,3.46
2023-01-04T03:06:33.308Z,3.13
2023-01-04T03:07:04.730Z,3.46
2023-01-04T03:07:36.149Z,2.97
2023-01-04T03:08:07.558Z,2.65
2023-01-04T03:08:38.958Z,3.29
2023-01-04T03:09:10.350Z,3.42
2023-01-04T03:09:41.757Z,3.09
2023-01-04T03:10:13.249Z,2.91
2023-01-04T03:10:44.661Z,2.82
2023-01-04T03:11:16.089Z,2.96
2023-01-04T03:11:47.482Z,2.99
2023-01-04T03:12:18.884Z,3.38
2023-01-04T03:12:50.312Z,3.64
2023-01-04T03:13:21.789Z,3.22
2023-01-04T03:13:53.210Z,2.85
2023-01-04T03:14:31.933Z,3.19
2023-01-04T03:15:04.590Z,3.24
2023-01-04T03:15:36.006Z,2.69
2023-01-04T03:16:07.486Z,3.26
2023-01-04T03:16:39.003Z,3.03
2023-01-04T03:17:10.530Z,3.02
2023-01-04T03:17:41.969Z,3.51
2023-01-04T03:18:13.374Z,2.55
2023-01-04T03:18:44.776Z,2.99
2023-01-04T03:19:16.180Z,2.80
2023-01-04T03:19:47.584Z,2.70
2023-01-04T03:20:19.066Z,3.30
2023-01-04T03:20:50.468Z,3.32
2023-01-04T03:21:21.900Z,2.92
2023-01-04T03:21:53.299Z,2.79
2023-01-04T03:22:24.717Z,3.12
2023-01-04T03:22:56.140Z,2.91
2023-01-04T03:23:27.561Z,2.98
2023-01-04T03:23:59.035Z,3.37
2023-01-04T03:24:30.465Z,2.85
2023-01-04T03:25:01.891Z,3.02
2023-01-04T03:25:33.342Z,3.06
2023-01-04T03:26:04.742Z,3.18
2023-01-04T03:26:36.158Z,2.89
2023-01-04T03:27:07.580Z,3.21
2023-01-04T03:27:38.989Z,3.00
2023-01-04T03:28:10.393Z,3.10
2023-01-04T03:28:41.800Z,2.98
2023-01-04T03:29:13.245Z,3.48
2023-01-04T03:29:44.701Z,2.83
2023-01-04T03:30:16.120Z,2.91
2023-01-04T03:30:47.592Z,2.68
2023-01-04T03:31:19.118Z,2.48
2023-01-04T03:31:50.621Z,2.84
2023-01-04T03:32:22.035Z,2.74
2023-01-04T03:32:53.427Z,3.02
2023-01-04T03:33:24.829Z,2.45
2023-01-04T03:33:56.249Z,3.01
2023-01-04T03:34:27.654Z,2.89
2023-01-04T03:34:59.054Z,2.94
2023-01-04T03:35:30.515Z,2.71
2023-01-04T03:36:01.958Z,2.66
2023-01-04T03:36:33.357Z,3.08
2023-01-04T03:37:04.774Z,3.06
2023-01-04T03:37:36.179Z,3.01
2023-01-04T03:38:07.583Z,3.03
2023-01-04T03:38:38.979Z,3.11
2023-01-04T03:39:10.379Z,2.84
2023-01-04T03:39:41.802Z,2.28
2023-01-04T03:40:13.201Z,2.49
2023-01-04T03:40:44.611Z,2.50
2023-01-04T03:41:16.102Z,2.84
2023-01-04T03:41:47.510Z,2.79
2023-01-04T03:42:18.929Z,3.04
2023-01-04T03:42:50.419Z,2.83
2023-01-04T03:43:21.809Z,2.89
2023-01-04T03:43:53.215Z,2.75
2023-01-04T03:44:24.656Z,2.84
2023-01-04T03:44:56.084Z,3.07
2023-01-04T03:45:27.497Z,3.09
2023-01-04T03:45:58.932Z,2.95
2023-01-04T03:46:30.387Z,2.91
2023-01-04T03:47:01.851Z,2.64
2023-01-04T03:47:33.286Z,2.70
2023-01-04T03:48:04.721Z,2.72
2023-01-04T03:48:36.129Z,2.95
2023-01-04T03:49:07.558Z,2.50
2023-01-04T03:49:38.959Z,2.86
2023-01-04T03:50:10.358Z,2.59
2023-01-04T03:50:41.758Z,2.21
2023-01-04T03:51:13.217Z,2.39
2023-01-04T03:51:44.619Z,2.76
2023-01-04T03:52:16.023Z,2.51
2023-01-04T03:52:47.441Z,2.60
2023-01-04T03:53:18.854Z,2.55
2023-01-04T03:53:50.280Z,2.88
2023-01-04T03:54:21.689Z,2.98
2023-01-04T03:54:53.379Z,3.27
2023-01-04T03:55:24.807Z,2.69
2023-01-04T03:55:56.225Z,2.91
2023-01-04T03:56:27.678Z,2.51
2023-01-04T03:56:59.090Z,2.83
2023-01-04T03:57:30.517Z,2.57
2023-01-04T03:58:01.943Z,2.68
2023-01-04T03:58:33.379Z,2.83
2023-01-04T03:59:04.801Z,2.92
2023-01-04T03:59:36.203Z,2.88
2023-01-04T04:00:07.634Z,2.68
2023-01-04T04:00:39.087Z,2.92
2023-01-04T04:01:10.710Z,2.62
2023-01-04T04:01:42.385Z,2.59
2023-01-04T04:02:14.035Z,2.82
2023-01-04T04:02:45.575Z,2.68
2023-01-04T04:03:16.983Z,2.41
2023-01-04T04:03:48.482Z,2.87
2023-01-04T04:04:19.990Z,2.87
2023-01-04T04:04:51.414Z,2.63
2023-01-04T04:05:22.818Z,2.42
2023-01-04T04:05:54.222Z,2.55
2023-01-04T04:06:25.641Z,2.81
2023-01-04T04:06:57.131Z,2.51
2023-01-04T04:07:28.550Z,2.92
2023-01-04T04:07:59.975Z,2.78
2023-01-04T04:08:31.426Z,3.07
2023-01-04T04:09:02.993Z,2.63
2023-01-04T04:09:34.394Z,2.70
2023-01-04T04:10:05.812Z,2.69
2023-01-04T04:10:37.235Z,2.84
2023-01-04T04:11:08.683Z,2.81
2023-01-04T04:11:40.075Z,2.84
2023-01-04T04:12:11.604Z,2.79
2023-01-04T04:12:43.044Z,2.45
2023-01-04T04:13:14.465Z,3.03
2023-01-04T04:13:45.873Z,2.96
2023-01-04T04:14:17.271Z,2.46
2023-01-04T04:14:48.700Z,2.83
2023-01-04T04:15:20.073Z,2.46
2023-01-04T04:15:51.439Z,2.59
2023-01-04T04:16:22.954Z,2.42
2023-01-04T04:16:54.503Z,1.90
2023-01-04T04:17:26.022Z,2.46
2023-01-04T04:17:57.427Z,2.53
2023-01-04T04:18:28.848Z,2.28
2023-01-04T04:19:06.446Z,2.66
2023-01-04T04:19:39.850Z,2.85
2023-01-04T04:20:11.251Z,2.71
2023-01-04T04:20:42.675Z,2.51
2023-01-04T04:21:14.083Z,2.56
2023-01-04T04:21:45.506Z,2.50
2023-01-04T04:22:16.902Z,2.43
2023-01-04T04:22:48.402Z,2.01
2023-01-04T04:23:19.800Z,2.57
2023-01-04T04:23:51.221Z,2.45
2023-01-04T04:24:22.644Z,2.63
2023-01-04T04:24:54.038Z,2.56
2023-01-04T04:25:25.449Z,2.15
2023-01-04T04:25:56.917Z,2.01
2023-01-04T04:26:28.324Z,2.55
2023-01-04T04:26:59.750Z,1.98
2023-01-04T04:27:31.161Z,2.35
2023-01-04T04:28:02.673Z,2.83
2023-01-04T04:28:34.098Z,2.63
2023-01-04T04:29:05.524Z,2.78
2023-01-04T04:29:36.917Z,2.94
2023-01-04T04:30:08.324Z,2.60
2023-01-04T04:30:39.729Z,2.24
2023-01-04T04:31:11.219Z,2.61
2023-01-04T04:31:42.745Z,2.51
2023-01-04T04:32:14.263Z,2.49
2023-01-04T04:32:45.721Z,2.68
2023-01-04T04:33:17.283Z,2.37
2023-01-04T04:33:48.691Z,2.37
2023-01-04T04:34:29.465Z,2.40
2023-01-04T04:35:00.879Z,2.63
2023-01-04T04:35:32.290Z,2.20
2023-01-04T04:36:03.728Z,2.07
2023-01-04T04:36:35.145Z,2.05
2023-01-04T04:37:06.545Z,3.12
2023-01-04T04:37:37.963Z,2.46
2023-01-04T04:38:09.477Z,2.66
2023-01-04T04:38:40.938Z,2.47
2023-01-04T04:39:12.378Z,2.48
2023-01-04T04:39:43.788Z,2.13
2023-01-04T04:40:15.187Z,2.12
2023-01-04T04:40:46.607Z,2.43
2023-01-04T04:41:18.032Z,2.40
2023-01-04T04:41:49.427Z,2.28
2023-01-04T04:42:20.832Z,2.49
2023-01-04T04:42:52.240Z,2.65
2023-01-04T04:43:23.765Z,2.38
2023-01-04T04:43:55.222Z,2.18
2023-01-04T04:44:26.616Z,2.37
2023-01-04T04:44:58.024Z,2.14
2023-01-04T04:45:29.468Z,2.03
2023-01-04T04:46:00.943Z,2.42
2023-01-04T04:46:32.386Z,2.43
2023-01-04T04:47:03.807Z,2.53
2023-01-04T04:47:35.213Z,2.60
2023-01-04T04:48:06.623Z,2.31
2023-01-04T04:48:38.050Z,2.48
2023-01-04T04:49:09.578Z,2.20
2023-01-04T04:49:40.964Z,2.39
2023-01-04T04:50:12.403Z,2.28
2023-01-04T04:50:43.831Z,2.50
2023-01-04T04:51:15.253Z,2.03
2023-01-04T04:51:46.716Z,2.40
2023-01-04T04:52:18.131Z,2.23
2023-01-04T04:52:55.669Z,1.89
2023-01-04T04:53:27.510Z,1.74
2023-01-04T04:53:58.908Z,2.32
2023-01-04T04:54:30.348Z,2.46
2023-01-04T04:55:01.786Z,2.14
2023-01-04T04:55:33.202Z,2.27
2023-01-04T04:56:04.609Z,2.22
2023-01-04T04:56:36.015Z,2.14
2023-01-04T04:57:07.432Z,2.39
2023-01-04T04:57:38.863Z,2.51
2023-01-04T04:58:10.265Z,2.25
2023-01-04T04:58:41.673Z,2.50
2023-01-04T04:59:13.093Z,2.40
2023-01-04T04:59:44.644Z,2.30
2023-01-04T05:00:16.077Z,2.21
2023-01-04T05:00:47.554Z,1.83
2023-01-04T05:01:19.100Z,1.81
2023-01-04T05:01:50.756Z,2.50
2023-01-04T05:02:22.608Z,2.32
2023-01-04T05:02:54.304Z,2.73
2023-01-04T05:03:25.882Z,2.24
2023-01-04T05:03:57.381Z,2.22
2023-01-04T05:04:28.788Z,2.13
2023-01-04T05:05:00.344Z,2.36
2023-01-04T05:05:31.756Z,2.28
2023-01-04T05:06:03.156Z,2.42
2023-01-04T05:06:34.569Z,2.33
2023-01-04T05:07:12.075Z,2.19
2023-01-04T05:07:43.938Z,2.03
2023-01-04T05:08:15.344Z,2.04
2023-01-04T05:08:46.755Z,1.87
2023-01-04T05:09:18.154Z,2.44
2023-01-04T05:09:49.599Z,2.36
2023-01-04T05:10:21.053Z,2.05
2023-01-04T05:10:52.471Z,2.37
2023-01-04T05:11:23.887Z,2.29
2023-01-04T05:11:55.309Z,1.96
2023-01-04T05:12:26.727Z,2.09
2023-01-04T05:12:58.290Z,1.96
2023-01-04T05:13:29.737Z,2.07
2023-01-04T05:14:01.140Z,2.09
2023-01-04T05:14:32.564Z,2.18
2023-01-04T05:15:03.964Z,1.96
2023-01-04T05:15:35.490Z,2.20
2023-01-04T05:16:07.147Z,2.41
2023-01-04T05:16:38.736Z,1.80
2023-01-04T05:17:10.266Z,2.29
2023-01-04T05:17:41.760Z,1.66
2023-01-04T05:18:13.165Z,1.88
2023-01-04T05:18:44.594Z,2.37
2023-01-04T05:19:16.006Z,2.14
2023-01-04T05:19:47.410Z,1.86
2023-01-04T05:20:18.824Z,2.59
2023-01-04T05:20:50.272Z,1.97
2023-01-04T05:21:21.677Z,2.04
2023-01-04T05:21:53.079Z,1.82
2023-01-04T05:22:24.507Z,2.28
2023-01-04T05:22:55.914Z,2.34
2023-01-04T05:23:27.330Z,1.90
2023-01-04T05:23:58.743Z,1.66
2023-01-04T05:24:30.142Z,2.21
2023-01-04T05:25:01.537Z,2.43
2023-01-04T05:25:32.940Z,1.83
2023-01-04T05:26:04.479Z,2.14
2023-01-04T05:26:35.896Z,2.11
2023-01-04T05:27:07.317Z,2.19
2023-01-04T05:27:38.718Z,2.29
2023-01-04T05:28:10.114Z,2.20
2023-01-04T05:28:41.511Z,2.28
2023-01-04T05:29:12.928Z,2.11
2023-01-04T05:29:44.361Z,2.00
2023-01-04T05:30:15.796Z,2.17
2023-01-04T05:30:47.196Z,2.09
2023-01-04T05:31:18.745Z,2.44
2023-01-04T05:31:50.210Z,2.02
2023-01-04T05:32:21.653Z,2.17
2023-01-04T05:32:53.063Z,1.89
2023-01-04T05:33:24.457Z,1.80
2023-01-04T05:33:55.864Z,2.08
2023-01-04T05:34:27.273Z,1.94
2023-01-04T05:34:58.686Z,1.84
2023-01-04T05:35:30.131Z,2.08
2023-01-04T05:36:01.572Z,1.85
2023-01-04T05:36:33.114Z,1.85
2023-01-04T05:37:04.525Z,2.09
2023-01-04T05:37:35.940Z,2.23
2023-01-04T05:38:07.338Z,2.21
2023-01-04T05:38:38.738Z,2.07
2023-01-04T05:39:10.132Z,2.24
2023-01-04T05:39:41.560Z,1.76
2023-01-04T05:40:12.973Z,2.06
2023-01-04T05:40:44.398Z,1.95
2023-01-04T05:41:15.822Z,2.32
2023-01-04T05:41:47.357Z,2.15
2023-01-04T05:42:18.776Z,2.33
2023-01-04T05:42:50.251Z,2.38
2023-01-04T05:43:21.669Z,2.32
2023-01-04T05:43:53.092Z,1.85
2023-01-04T05:44:24.489Z,1.81
2023-01-04T05:44:55.881Z,2.41
2023-01-04T05:45:27.277Z,2.29
2023-01-04T05:45:58.721Z,2.27
2023-01-04T05:46:30.222Z,2.17
2023-01-04T05:47:01.919Z,2.35
2023-01-04T05:47:33.313Z,2.17
2023-01-04T05:48:04.747Z,2.37
2023-01-04T05:48:36.178Z,2.09
2023-01-04T05:49:07.592Z,2.01
2023-01-04T05:49:39.021Z,2.10
2023-01-04T05:50:10.428Z,2.33
2023-01-04T05:50:41.835Z,2.15
2023-01-04T05:51:13.275Z,2.00
2023-01-04T05:51:44.699Z,2.04
2023-01-04T05:52:16.107Z,2.20
2023-01-04T05:52:47.523Z,2.52
2023-01-04T05:53:18.987Z,2.12
2023-01-04T05:53:50.450Z,1.81
2023-01-04T05:54:21.903Z,2.06
2023-01-04T05:54:53.316Z,2.09
2023-01-04T05:55:24.720Z,2.35
2023-01-04T05:55:56.135Z,1.90
2023-01-04T05:56:27.529Z,1.68
2023-01-04T05:56:58.934Z,2.17
2023-01-04T05:57:30.455Z,1.95
2023-01-04T05:58:01.917Z,2.09
2023-01-04T05:58:33.357Z,2.02
2023-01-04T05:59:04.760Z,1.72
2023-01-04T05:59:41.485Z,1.94
2023-01-04T06:00:13.451Z,1.70
2023-01-04T06:00:44.924Z,1.85
2023-01-04T06:01:16.357Z,1.98
2023-01-04T06:01:47.985Z,2.06
2023-01-04T06:02:19.672Z,1.75
2023-01-04T06:02:51.352Z,1.70
2023-01-04T06:03:22.910Z,2.41
2023-01-04T06:03:54.480Z,2.21
2023-01-04T06:04:25.907Z,1.56
2023-01-04T06:04:59.354Z,2.22
2023-01-04T06:05:31.068Z,1.87
2023-01-04T06:06:02.493Z,2.18
2023-01-04T06:06:33.890Z,2.08
2023-01-04T06:07:05.355Z,1.94
2023-01-04T06:07:36.770Z,1.99
2023-01-04T06:08:08.308Z,2.36
2023-01-04T06:08:39.708Z,2.04
2023-01-04T06:09:11.108Z,1.74
2023-01-04T06:09:42.514Z,1.68
2023-01-04T06:10:13.924Z,1.95
2023-01-04T06:10:45.336Z,2.14
2023-01-04T06:11:17.722Z,1.70
2023-01-04T06:11:51.621Z,2.13
2023-01-04T06:12:23.033Z,2.09
2023-01-04T06:12:54.429Z,1.87
2023-01-04T06:13:25.967Z,2.06
2023-01-04T06:13:57.371Z,2.65
2023-01-04T06:14:28.778Z,1.67
2023-01-04T06:15:00.204Z,1.74
2023-01-04T06:15:31.624Z,2.32
2023-01-04T06:16:03.027Z,1.86
2023-01-04T06:16:34.465Z,2.12
2023-01-04T06:17:06.004Z,2.02
2023-01-04T06:17:37.517Z,1.49
2023-01-04T06:18:13.350Z,1.81
2023-01-04T06:18:45.452Z,1.93
2023-01-04T06:19:16.863Z,1.96
2023-01-04T06:19:48.262Z,1.89
2023-01-04T06:20:19.660Z,1.90
2023-01-04T06:20:51.056Z,1.83
2023-01-04T06:21:22.547Z,1.99
2023-01-04T06:21:53.978Z,2.09
2023-01-04T06:22:25.412Z,1.68
2023-01-04T06:22:56.833Z,1.80
2023-01-04T06:23:28.253Z,1.73
2023-01-04T06:23:59.809Z,1.56
2023-01-04T06:24:31.229Z,1.91
2023-01-04T06:25:02.694Z,2.23
2023-01-04T06:25:34.120Z,1.78
2023-01-04T06:26:05.536Z,1.92
2023-01-04T06:26:36.931Z,2.02
2023-01-04T06:27:08.363Z,1.85
2023-01-04T06:27:39.798Z,1.71
2023-01-04T06:28:11.203Z,1.77
2023-01-04T06:28:42.613Z,1.75
2023-01-04T06:29:14.070Z,1.85
2023-01-04T06:29:45.475Z,1.78
2023-01-04T06:30:16.987Z,1.97
2023-01-04T06:30:48.464Z,1.74
2023-01-04T06:31:19.950Z,1.47
2023-01-04T06:31:51.487Z,1.71
2023-01-04T06:32:22.896Z,2.33
2023-01-04T06:32:54.291Z,2.00
2023-01-04T06:33:25.710Z,1.48
2023-01-04T06:33:57.128Z,2.01
2023-01-04T06:34:31.243Z,1.93
2023-01-04T06:35:03.084Z,1.96
2023-01-04T06:35:34.502Z,1.67
2023-01-04T06:36:05.908Z,1.52
2023-01-04T06:36:37.307Z,1.98
2023-01-04T06:37:08.715Z,2.12
2023-01-04T06:37:40.136Z,2.28
2023-01-04T06:38:11.579Z,2.02
2023-01-04T06:38:42.984Z,2.19
2023-01-04T06:39:14.386Z,1.84
2023-01-04T06:39:45.825Z,1.44
2023-01-04T06:40:17.258Z,1.61
2023-01-04T06:40:48.669Z,2.26
2023-01-04T06:41:20.146Z,1.55
2023-01-04T06:41:51.564Z,1.53
2023-01-04T06:42:22.995Z,1.73
2023-01-04T06:42:54.433Z,1.84
2023-01-04T06:43:25.839Z,1.63
2023-01-04T06:43:57.251Z,1.82
2023-01-04T06:44:28.651Z,1.73
2023-01-04T06:45:00.192Z,1.69
2023-01-04T06:45:31.638Z,1.97
2023-01-04T06:46:03.115Z,1.86
2023-01-04T06:46:34.621Z,1.47
2023-01-04T06:47:06.043Z,1.90
2023-01-04T06:47:37.455Z,1.76
2023-01-04T06:48:09.328Z,1.92
2023-01-04T06:48:40.920Z,1.85
2023-01-04T06:49:12.385Z,1.82
2023-01-04T06:49:43.801Z,2.03
2023-01-04T06:50:15.334Z,1.77
2023-01-04T06:50:46.742Z,2.01
2023-01-04T06:51:18.138Z,1.93
2023-01-04T06:51:49.543Z,1.92
2023-01-04T06:52:20.944Z,1.76
2023-01-04T06:52:52.351Z,1.79
2023-01-04T06:53:23.770Z,2.12
2023-01-04T06:53:55.229Z,2.16
2023-01-04T06:54:26.628Z,1.64
2023-01-04T06:54:58.055Z,1.92
2023-01-04T06:55:29.586Z,1.68
2023-01-04T06:56:00.999Z,1.75
2023-01-04T06:56:32.406Z,1.71
2023-01-04T06:57:03.803Z,1.71
2023-01-04T06:57:35.214Z,2.26
2023-01-04T06:58:06.607Z,1.67
2023-01-04T06:58:38.021Z,1.62
2023-01-04T06:59:09.418Z,1.70
2023-01-04T06:59:40.831Z,1.82
2023-01-04T07:00:12.241Z,2.19
2023-01-04T07:00:43.759Z,1.71